Time;durP1;ratioP1;P1;durP2;ratioP2;P2;SDS_P1;SDS_P2;PMS_P1;PMS_P2;Temp;Humidity;BMP_temperature;BMP_pressure;BME280_temperature;BME280_humidity;BME280_pressure;Samples;Min_cycle;Max_cycle;Signal;HPM_P1;HPM_P2
2022/12/18 00:02:22;;;;;;;43.73;17.10;;;-4.00;99.90;;;;;;5028951;28;20231;-69
2022/12/18 00:04:48;;;;;;;40.23;16.10;;;-3.80;99.90;;;;;;5052777;23;20549;-70
2022/12/18 00:07:14;;;;;;;49.20;18.50;;;-3.90;99.90;;;;;;5042661;28;20577;-69
2022/12/18 00:09:39;;;;;;;39.83;16.63;;;-3.80;99.90;;;;;;5041419;28;20202;-70
2022/12/18 00:12:05;;;;;;;42.30;17.27;;;-4.20;99.90;;;;;;5048421;28;20516;-69
2022/12/18 00:14:31;;;;;;;33.63;14.83;;;-4.30;99.90;;;;;;5044974;28;20210;-70
2022/12/18 00:16:58;;;;;;;38.30;16.37;;;-4.20;99.90;;;;;;5028392;28;20205;-70
2022/12/18 00:19:23;;;;;;;39.03;15.80;;;-4.30;99.90;;;;;;5028333;28;20205;-70
2022/12/18 00:21:49;;;;;;;35.03;14.83;;;-4.40;99.90;;;;;;5024411;28;20209;-70
2022/12/18 00:24:15;;;;;;;36.70;13.90;;;-4.50;99.90;;;;;;5027626;28;20179;-69
2022/12/18 00:26:40;;;;;;;36.17;15.57;;;-4.30;99.90;;;;;;5025775;28;20194;-71
2022/12/18 00:29:11;;;;;;;35.90;15.30;;;-4.30;99.90;;;;;;5025632;28;20206;-70
2022/12/18 00:31:37;;;;;;;36.90;15.87;;;-4.30;99.90;;;;;;5024092;28;20205;-71
2022/12/18 00:34:03;;;;;;;37.87;16.53;;;-4.40;99.90;;;;;;5024451;28;20226;-69
2022/12/18 00:36:32;;;;;;;40.07;15.40;;;-4.40;99.90;;;;;;5024407;28;20227;-71
2022/12/18 00:38:59;;;;;;;39.43;17.97;;;-4.60;99.90;;;;;;5028085;28;20248;-70
2022/12/18 00:44:12;;;;;;;39.17;16.03;;;-4.70;99.90;;;;;;5023519;28;20237;-70
2022/12/18 00:46:38;;;;;;;40.47;17.33;;;-4.60;99.90;;;;;;5031031;28;20216;-70
2022/12/18 00:49:04;;;;;;;41.27;16.80;;;-4.60;99.90;;;;;;5026496;28;20352;-73
2022/12/18 00:51:29;;;;;;;37.90;15.83;;;-4.50;99.90;;;;;;5030245;28;20209;-71
2022/12/18 00:53:55;;;;;;;39.97;16.73;;;-4.70;99.90;;;;;;5029732;28;20182;-69
2022/12/18 00:56:21;;;;;;;37.37;16.40;;;-4.80;99.90;;;;;;5026408;28;20311;-70
2022/12/18 00:58:46;;;;;;;35.87;16.40;;;-4.90;99.90;;;;;;5031154;28;20707;-70
2022/12/18 01:01:12;;;;;;;40.33;18.37;;;-4.80;99.90;;;;;;5026169;28;20223;-70
2022/12/18 01:03:38;;;;;;;37.87;15.83;;;-4.80;99.90;;;;;;5027509;28;20267;-71
2022/12/18 01:06:08;;;;;;;44.93;18.07;;;-4.70;99.90;;;;;;5031392;28;20224;-70
2022/12/18 01:08:34;;;;;;;43.07;17.17;;;-4.70;99.90;;;;;;5027461;28;20231;-70
2022/12/18 01:11:00;;;;;;;46.93;19.13;;;-4.70;99.90;;;;;;5027316;28;20236;-71
2022/12/18 01:13:26;;;;;;;47.10;17.50;;;-4.80;99.90;;;;;;5033196;28;20292;-70
2022/12/18 01:15:52;;;;;;;41.17;16.70;;;-4.70;99.90;;;;;;5027558;28;20745;-70
2022/12/18 01:18:18;;;;;;;43.57;16.63;;;-4.60;99.90;;;;;;5028376;28;20217;-70
2022/12/18 01:20:43;;;;;;;47.37;18.50;;;-4.50;99.90;;;;;;5028797;28;20180;-70
2022/12/18 01:23:09;;;;;;;42.90;17.43;;;-4.40;99.90;;;;;;5024950;28;20241;-71
2022/12/18 01:25:38;;;;;;;42.13;17.43;;;-4.50;99.90;;;;;;5030826;28;20213;-68
2022/12/18 01:28:03;;;;;;;40.30;15.80;;;-4.50;99.90;;;;;;5027547;28;20580;-71
2022/12/18 01:30:29;;;;;;;44.23;17.07;;;-4.50;99.90;;;;;;5026614;28;20217;-70
2022/12/18 01:32:55;;;;;;;47.10;17.47;;;-4.60;99.90;;;;;;5031854;28;20202;-70
2022/12/18 01:35:20;;;;;;;43.67;18.67;;;-4.50;99.90;;;;;;5026742;28;20549;-71
2022/12/18 01:37:46;;;;;;;44.13;17.20;;;-4.50;99.90;;;;;;5028871;28;20218;-70
2022/12/18 01:40:12;;;;;;;41.33;16.67;;;-4.60;99.90;;;;;;5028866;28;20299;-70
2022/12/18 01:42:38;;;;;;;47.23;19.17;;;-4.70;99.90;;;;;;5026936;28;20213;-70
2022/12/18 01:45:15;;;;;;;49.80;20.00;;;-4.70;99.90;;;;;;5028157;28;20586;-70
2022/12/18 01:47:54;;;;;;;44.90;16.70;;;-4.80;99.90;;;;;;5029311;28;20275;-70
2022/12/18 01:50:41;;;;;;;43.87;17.80;;;-4.70;99.90;;;;;;5024727;28;20213;-70
2022/12/18 01:53:09;;;;;;;45.23;18.57;;;-4.60;99.90;;;;;;5028965;28;20213;-70
2022/12/18 01:55:42;;;;;;;46.20;18.17;;;-4.60;99.90;;;;;;5024376;28;20709;-70
2022/12/18 01:58:07;;;;;;;47.13;16.83;;;-4.70;99.90;;;;;;5026645;28;20217;-70
2022/12/18 02:00:34;;;;;;;48.80;18.37;;;-4.70;99.90;;;;;;5031098;28;20725;-70
2022/12/18 02:03:00;;;;;;;45.00;16.97;;;-4.80;99.90;;;;;;5027104;28;20177;-70
2022/12/18 02:05:41;;;;;;;44.13;17.10;;;-4.80;99.90;;;;;;5026804;28;20222;-70
2022/12/18 02:08:26;;;;;;;38.00;16.50;;;-4.70;99.90;;;;;;5029780;28;20225;-70
2022/12/18 02:11:18;;;;;;;39.53;16.43;;;-4.80;99.90;;;;;;5027777;28;20224;-70
2022/12/18 02:13:55;;;;;;;41.73;16.63;;;-4.70;99.90;;;;;;5029328;28;20280;-70
2022/12/18 02:16:31;;;;;;;39.07;16.73;;;-4.70;99.90;;;;;;5023358;28;20739;-70
2022/12/18 02:19:03;;;;;;;47.60;18.30;;;-4.60;99.90;;;;;;5027832;28;20217;-70
2022/12/18 02:21:54;;;;;;;45.77;17.97;;;-4.70;99.90;;;;;;5027039;28;20631;-70
2022/12/18 02:24:44;;;;;;;42.93;16.93;;;-4.70;99.90;;;;;;5024826;28;20210;-69
2022/12/18 02:27:11;;;;;;;41.93;16.60;;;-4.80;99.90;;;;;;5021818;28;20755;-70
2022/12/18 02:29:59;;;;;;;50.50;17.60;;;-4.60;99.90;;;;;;5025395;28;20182;-70
2022/12/18 02:32:29;;;;;;;43.03;17.60;;;-4.60;99.90;;;;;;5029065;28;20206;-70
2022/12/18 02:34:56;;;;;;;43.53;17.33;;;-4.60;99.90;;;;;;5030539;28;20219;-70
2022/12/18 02:37:25;;;;;;;46.47;17.03;;;-4.60;99.90;;;;;;5024521;28;20275;-69
2022/12/18 02:39:52;;;;;;;47.30;17.67;;;-4.60;99.90;;;;;;5028409;28;20712;-69
2022/12/18 02:42:19;;;;;;;44.30;17.93;;;-4.60;99.90;;;;;;5019590;28;20279;-70
2022/12/18 02:44:47;;;;;;;45.37;15.90;;;-4.90;99.90;;;;;;5027714;28;20194;-70
2022/12/18 02:47:16;;;;;;;42.70;17.63;;;-5.00;99.90;;;;;;5029237;28;20211;-70
2022/12/18 02:49:59;;;;;;;40.60;16.43;;;-5.00;99.90;;;;;;5024928;28;20221;-70
2022/12/18 02:52:36;;;;;;;41.37;16.17;;;-5.00;99.90;;;;;;5027481;28;20695;-70
2022/12/18 02:55:23;;;;;;;38.47;15.50;;;-5.10;99.90;;;;;;5029115;28;20208;-70
2022/12/18 02:58:02;;;;;;;42.80;16.57;;;-5.10;99.90;;;;;;5023766;28;20232;-70
2022/12/18 03:01:15;;;;;;;41.80;17.50;;;-5.10;99.90;;;;;;5028642;28;20219;-70
2022/12/18 03:03:49;;;;;;;39.73;15.83;;;-5.10;99.90;;;;;;5028129;28;20763;-70
2022/12/18 03:06:26;;;;;;;38.27;17.40;;;-5.00;99.90;;;;;;5026832;28;20640;-69
2022/12/18 03:08:58;;;;;;;40.03;15.97;;;-5.00;99.90;;;;;;5026695;28;20253;-69
2022/12/18 03:12:22;;;;;;;39.27;15.57;;;-4.90;99.90;;;;;;5023684;28;20211;-70
2022/12/18 03:14:15;;;;;;;38.13;14.83;;;-4.80;99.90;;;;;;5029529;28;20219;-69
2022/12/18 03:16:42;;;;;;;36.63;15.63;;;-4.70;99.90;;;;;;5026202;28;20233;-69
2022/12/18 03:19:13;;;;;;;38.70;15.90;;;-4.70;99.90;;;;;;5025810;28;20222;-70
2022/12/18 03:21:49;;;;;;;40.60;15.87;;;-4.70;99.90;;;;;;5029470;28;20216;-69
2022/12/18 03:24:15;;;;;;;38.30;14.57;;;-4.80;99.90;;;;;;5022130;28;20188;-69
2022/12/18 03:26:45;;;;;;;46.63;18.13;;;-4.80;99.90;;;;;;5028338;28;20201;-70
2022/12/18 03:29:32;;;;;;;42.07;16.93;;;-4.80;99.90;;;;;;5027268;28;20217;-69
2022/12/18 03:32:05;;;;;;;38.07;16.83;;;-4.80;99.90;;;;;;5023426;28;20271;-69
2022/12/18 03:34:34;;;;;;;43.17;17.50;;;-4.90;99.90;;;;;;5025916;28;20215;-70
2022/12/18 03:37:00;;;;;;;41.87;17.23;;;-4.90;99.90;;;;;;5023056;28;20217;-69
2022/12/18 03:39:26;;;;;;;41.90;18.13;;;-5.00;99.90;;;;;;5025074;28;21055;-69
2022/12/18 03:42:10;;;;;;;42.93;16.70;;;-5.10;99.90;;;;;;5030129;28;20182;-70
2022/12/18 03:44:45;;;;;;;46.37;18.47;;;-5.20;99.90;;;;;;5025527;28;20228;-72
2022/12/18 03:47:15;;;;;;;48.10;17.47;;;-5.10;99.90;;;;;;5019528;28;20635;-70
2022/12/18 03:49:44;;;;;;;43.27;17.30;;;-5.10;99.90;;;;;;5025728;28;20209;-70
2022/12/18 03:52:21;;;;;;;43.07;18.30;;;-5.10;99.90;;;;;;5021896;28;20216;-70
2022/12/18 03:54:47;;;;;;;43.50;15.67;;;-5.20;99.90;;;;;;5029599;28;20220;-69
2022/12/18 03:57:22;;;;;;;40.60;15.93;;;-5.10;99.90;;;;;;5030163;28;20655;-69
2022/12/18 03:59:54;;;;;;;48.07;17.97;;;-5.40;99.90;;;;;;5031092;28;20178;-69
2022/12/18 04:02:22;;;;;;;43.40;16.23;;;-5.20;99.90;;;;;;5029613;28;20205;-70
2022/12/18 04:04:52;;;;;;;52.10;17.83;;;-5.30;99.90;;;;;;5026975;28;20208;-69
2022/12/18 04:07:18;;;;;;;46.27;17.03;;;-5.30;99.90;;;;;;5030357;28;20201;-69
2022/12/18 04:09:45;;;;;;;43.50;17.63;;;-5.50;99.90;;;;;;5028151;28;20576;-68
2022/12/18 04:12:11;;;;;;;44.70;18.50;;;-5.70;99.90;;;;;;5030671;28;20319;-69
2022/12/18 04:14:36;;;;;;;56.60;21.87;;;-5.50;99.90;;;;;;5029242;28;20193;-68
2022/12/18 04:17:03;;;;;;;55.00;19.87;;;-5.60;99.90;;;;;;5030826;28;20205;-68
2022/12/18 04:19:29;;;;;;;53.63;19.23;;;-5.50;99.90;;;;;;5029801;28;20563;-70
2022/12/18 04:21:54;;;;;;;55.07;21.20;;;-5.40;99.90;;;;;;5027629;28;20315;-70
2022/12/18 04:24:20;;;;;;;53.57;20.20;;;-5.50;99.90;;;;;;5029201;28;20187;-70
2022/12/18 04:26:46;;;;;;;59.00;22.20;;;-5.50;99.90;;;;;;5029502;28;20737;-70
2022/12/18 04:29:11;;;;;;;57.30;20.80;;;-5.50;99.90;;;;;;5027461;28;20221;-69
2022/12/18 04:31:37;;;;;;;57.80;21.23;;;-5.50;99.90;;;;;;5028932;28;20226;-70
2022/12/18 04:34:03;;;;;;;59.70;21.47;;;-5.50;99.90;;;;;;5028579;28;20216;-68
2022/12/18 04:36:29;;;;;;;56.50;20.27;;;-5.50;99.90;;;;;;5030237;28;20279;-69
2022/12/18 04:38:55;;;;;;;54.93;19.07;;;-5.50;99.90;;;;;;5029001;28;20192;-71
2022/12/18 04:41:20;;;;;;;57.43;20.80;;;-5.60;99.90;;;;;;5028927;28;20211;-70
2022/12/18 04:43:46;;;;;;;66.67;22.70;;;-5.60;99.90;;;;;;5029898;28;20209;-70
2022/12/18 04:46:11;;;;;;;71.47;24.10;;;-5.60;99.90;;;;;;5029482;28;20220;-70
2022/12/18 04:48:37;;;;;;;73.33;25.27;;;-5.50;99.90;;;;;;5029860;28;20219;-69
2022/12/18 04:51:04;;;;;;;70.60;23.50;;;-5.50;99.90;;;;;;5029160;28;20181;-68
2022/12/18 04:53:30;;;;;;;70.40;24.03;;;-5.50;99.90;;;;;;5028159;28;20633;-70
2022/12/18 04:56:03;;;;;;;66.80;23.83;;;-5.50;99.90;;;;;;5029215;28;20228;-69
2022/12/18 04:58:29;;;;;;;72.07;24.77;;;-5.50;99.90;;;;;;5029822;28;20233;-69
2022/12/18 05:00:54;;;;;;;82.70;29.50;;;-5.40;99.90;;;;;;5028310;28;20959;-72
2022/12/18 05:03:20;;;;;;;70.50;25.60;;;-5.40;99.90;;;;;;5029899;28;20252;-68
2022/12/18 05:05:48;;;;;;;62.23;23.70;;;-5.60;99.90;;;;;;5029915;28;20220;-69
2022/12/18 05:08:14;;;;;;;78.27;25.57;;;-5.60;99.90;;;;;;5029413;28;20733;-69
2022/12/18 05:10:40;;;;;;;83.17;24.83;;;-5.50;99.90;;;;;;5028563;28;20201;-69
2022/12/18 05:13:05;;;;;;;72.57;24.87;;;-5.50;99.90;;;;;;5027763;28;20335;-70
2022/12/18 05:15:32;;;;;;;68.87;25.87;;;-5.40;99.90;;;;;;5029590;28;20245;-70
2022/12/18 05:17:58;;;;;;;71.73;26.30;;;-5.40;99.90;;;;;;5029743;28;20226;-69
2022/12/18 05:20:25;;;;;;;87.17;27.23;;;-5.50;99.90;;;;;;5028549;28;20231;-70
2022/12/18 05:22:51;;;;;;;73.30;26.30;;;-5.60;99.90;;;;;;5027730;28;20232;-69
2022/12/18 05:25:17;;;;;;;78.00;26.20;;;-5.50;99.90;;;;;;5029113;28;20208;-68
2022/12/18 05:27:43;;;;;;;68.17;24.67;;;-5.60;99.90;;;;;;5029572;28;20657;-67
2022/12/18 05:30:09;;;;;;;74.77;25.90;;;-5.40;99.90;;;;;;5028528;28;20184;-68
2022/12/18 05:32:35;;;;;;;75.97;25.73;;;-5.40;99.90;;;;;;5031524;28;20174;-70
2022/12/18 05:35:00;;;;;;;71.43;25.40;;;-5.40;99.90;;;;;;5032766;28;20756;-70
2022/12/18 05:37:26;;;;;;;72.23;27.97;;;-5.40;99.90;;;;;;5032998;28;20205;-69
2022/12/18 05:39:52;;;;;;;78.20;26.83;;;-5.40;99.90;;;;;;5032129;28;20216;-69
2022/12/18 05:42:18;;;;;;;77.10;26.77;;;-5.30;99.90;;;;;;5031214;28;20248;-69
2022/12/18 05:44:44;;;;;;;73.43;27.30;;;-5.40;99.90;;;;;;5033357;28;20717;-69
2022/12/18 05:47:09;;;;;;;59.13;22.53;;;-5.40;99.90;;;;;;5031372;28;20266;-69
2022/12/18 05:49:35;;;;;;;74.97;26.67;;;-5.30;99.90;;;;;;5032053;28;20291;-70
2022/12/18 05:52:01;;;;;;;74.70;25.37;;;-5.40;99.90;;;;;;5032027;28;20200;-70
2022/12/18 05:54:29;;;;;;;86.47;30.77;;;-5.30;99.90;;;;;;5031181;28;20681;-71
2022/12/18 05:56:55;;;;;;;73.40;26.07;;;-5.20;99.90;;;;;;5032736;28;20194;-70
2022/12/18 05:59:20;;;;;;;69.53;27.60;;;-5.20;99.90;;;;;;5031861;28;20379;-69
2022/12/18 06:01:46;;;;;;;70.20;26.10;;;-5.10;99.90;;;;;;5030432;28;20709;-70
2022/12/18 06:04:12;;;;;;;77.33;26.20;;;-5.30;99.90;;;;;;5027385;28;20217;-69
2022/12/18 06:06:38;;;;;;;67.97;25.77;;;-5.20;99.90;;;;;;5042294;23;20237;-68
2022/12/18 06:09:08;;;;;;;70.73;25.53;;;-5.20;99.90;;;;;;5029975;28;20183;-67
2022/12/18 06:11:35;;;;;;;80.43;27.60;;;-5.30;99.90;;;;;;5026945;28;20214;-66
2022/12/18 06:14:01;;;;;;;72.63;25.33;;;-5.30;99.90;;;;;;5027813;28;20217;-67
2022/12/18 06:16:28;;;;;;;77.60;26.80;;;-5.30;99.90;;;;;;5025311;28;20293;-67
2022/12/18 06:18:56;;;;;;;76.50;27.03;;;-5.30;99.90;;;;;;5023889;28;20229;-66
2022/12/18 06:21:22;;;;;;;71.37;25.77;;;-5.40;99.90;;;;;;5021993;28;20705;-67
2022/12/18 06:23:48;;;;;;;71.17;25.93;;;-5.40;99.90;;;;;;5021866;28;20253;-67
2022/12/18 06:26:14;;;;;;;56.30;22.63;;;-5.30;99.90;;;;;;5020573;28;20213;-65
2022/12/18 06:28:40;;;;;;;66.03;24.40;;;-5.30;99.90;;;;;;5023494;28;20205;-67
2022/12/18 06:31:06;;;;;;;59.93;22.93;;;-5.40;99.90;;;;;;5019684;28;20783;-69
2022/12/18 06:33:33;;;;;;;59.80;22.93;;;-5.40;99.90;;;;;;5023993;28;20209;-69
2022/12/18 06:36:17;;;;;;;62.93;23.47;;;-5.30;99.90;;;;;;5025085;28;20197;-69
2022/12/18 06:38:43;;;;;;;65.33;24.43;;;-5.30;99.90;;;;;;5027643;28;20225;-69
2022/12/18 06:41:21;;;;;;;71.90;25.70;;;-5.20;99.90;;;;;;5021266;28;20308;-68
2022/12/18 06:43:46;;;;;;;79.50;26.43;;;-5.30;99.90;;;;;;5020154;28;20203;-69
2022/12/18 06:46:12;;;;;;;77.33;28.90;;;-5.40;99.90;;;;;;5024197;28;20761;-69
2022/12/18 06:48:38;;;;;;;73.83;27.03;;;-5.40;99.90;;;;;;5025643;28;20279;-69
2022/12/18 06:51:04;;;;;;;73.07;27.50;;;-5.40;99.90;;;;;;5019168;28;20296;-68
2022/12/18 06:53:31;;;;;;;74.07;25.10;;;-5.30;99.90;;;;;;5020976;28;20318;-68
2022/12/18 06:56:05;;;;;;;72.33;27.33;;;-5.30;99.90;;;;;;5019130;28;20262;-68
2022/12/18 06:58:31;;;;;;;74.53;27.53;;;-5.40;99.90;;;;;;5021483;28;20212;-68
2022/12/18 07:01:01;;;;;;;77.20;28.27;;;-5.40;99.90;;;;;;5020487;28;20210;-66
2022/12/18 07:03:27;;;;;;;71.80;27.63;;;-5.30;99.90;;;;;;5025736;28;20173;-68
2022/12/18 07:05:52;;;;;;;68.83;26.97;;;-5.30;99.90;;;;;;5019917;28;20200;-66
2022/12/18 07:08:18;;;;;;;73.77;25.60;;;-5.20;99.90;;;;;;5021256;28;20210;-67
2022/12/18 07:10:43;;;;;;;77.57;27.20;;;-5.30;99.90;;;;;;5021700;28;20209;-68
2022/12/18 07:13:09;;;;;;;74.17;26.63;;;-5.30;99.90;;;;;;5019224;28;20236;-68
2022/12/18 07:15:35;;;;;;;65.23;25.90;;;-5.40;99.90;;;;;;5024761;28;20270;-68
2022/12/18 07:18:01;;;;;;;72.03;27.17;;;-5.40;99.90;;;;;;5019325;28;20205;-68
2022/12/18 07:20:26;;;;;;;72.10;26.77;;;-5.40;99.90;;;;;;5020665;28;20209;-68
2022/12/18 07:22:52;;;;;;;75.03;26.97;;;-5.60;99.90;;;;;;5023810;28;20308;-69
2022/12/18 07:25:17;;;;;;;76.73;27.10;;;-5.50;99.90;;;;;;5019457;28;20232;-68
2022/12/18 07:27:43;;;;;;;60.10;23.93;;;-5.60;99.90;;;;;;5022824;28;20216;-66
2022/12/18 07:30:10;;;;;;;64.53;25.20;;;-5.50;99.90;;;;;;5020142;28;20197;-65
2022/12/18 07:32:35;;;;;;;67.27;25.03;;;-5.50;99.90;;;;;;5023022;28;20186;-67
2022/12/18 07:35:01;;;;;;;64.53;24.13;;;-5.40;99.90;;;;;;5019801;28;20289;-68
2022/12/18 07:37:26;;;;;;;63.13;23.50;;;-5.30;99.90;;;;;;5022892;28;20213;-68
2022/12/18 07:39:52;;;;;;;66.53;23.63;;;-5.40;99.90;;;;;;5018326;28;20280;-67
2022/12/18 07:42:33;;;;;;;56.90;22.27;;;-5.30;99.90;;;;;;5020821;28;20174;-68
2022/12/18 07:44:59;;;;;;;51.63;21.33;;;-5.20;99.90;;;;;;5021175;28;20177;-68
2022/12/18 07:47:25;;;;;;;57.20;21.20;;;-5.30;99.90;;;;;;5022224;28;20240;-68
2022/12/18 07:49:51;;;;;;;53.30;20.87;;;-5.30;99.90;;;;;;5023258;28;20213;-67
2022/12/18 07:52:17;;;;;;;49.47;19.57;;;-5.30;99.90;;;;;;5018659;28;20213;-68
2022/12/18 07:54:43;;;;;;;53.90;19.53;;;-5.40;99.90;;;;;;5016258;28;20220;-67
2022/12/18 07:57:09;;;;;;;49.30;19.60;;;-5.50;99.90;;;;;;5024667;28;20217;-68
2022/12/18 07:59:34;;;;;;;48.27;18.43;;;-5.50;99.90;;;;;;5019399;28;20213;-67
2022/12/18 08:02:00;;;;;;;57.20;22.10;;;-5.40;99.90;;;;;;5021552;28;20204;-68
2022/12/18 08:04:26;;;;;;;51.50;19.60;;;-5.50;99.90;;;;;;5018565;28;20208;-69
2022/12/18 08:06:52;;;;;;;46.93;18.63;;;-5.40;99.90;;;;;;5021737;28;20220;-67
2022/12/18 08:09:17;;;;;;;54.30;20.93;;;-5.40;99.90;;;;;;5021332;28;20181;-68
2022/12/18 08:11:43;;;;;;;54.53;19.93;;;-5.30;99.90;;;;;;5020282;28;20689;-68
2022/12/18 08:14:09;;;;;;;57.93;19.83;;;-5.40;99.90;;;;;;5019638;28;20216;-69
2022/12/18 08:16:35;;;;;;;56.77;21.30;;;-5.40;99.90;;;;;;5021829;28;20219;-68
2022/12/18 08:19:01;;;;;;;55.47;21.60;;;-5.30;99.90;;;;;;5019231;28;20221;-67
2022/12/18 08:21:29;;;;;;;55.80;20.77;;;-5.20;99.90;;;;;;5019661;28;20208;-65
2022/12/18 08:23:57;;;;;;;40.47;14.63;;;-5.30;99.90;;;;;;5019555;28;20188;-67
2022/12/18 08:26:23;;;;;;;54.37;19.23;;;-5.30;99.90;;;;;;5021980;28;20220;-68
2022/12/18 08:28:50;;;;;;;59.90;21.57;;;-5.20;99.90;;;;;;5021026;28;20588;-68
2022/12/18 08:31:16;;;;;;;57.07;20.70;;;-5.20;99.90;;;;;;5022777;28;20223;-68
2022/12/18 08:33:41;;;;;;;43.97;19.40;;;-5.20;99.90;;;;;;5022061;28;20208;-69
2022/12/18 08:36:09;;;;;;;57.10;21.10;;;-5.20;99.90;;;;;;5019069;28;20285;-69
2022/12/18 08:38:35;;;;;;;53.67;20.87;;;-5.10;99.90;;;;;;5021164;28;20275;-69
2022/12/18 08:41:05;;;;;;;44.53;19.87;;;-5.00;99.90;;;;;;5017481;28;20213;-69
2022/12/18 08:46:19;;;;;;;53.43;19.17;;;-5.20;99.90;;;;;;5018192;28;20221;-68
2022/12/18 08:48:45;;;;;;;55.80;21.57;;;-5.20;99.90;;;;;;5018962;28;20213;-69
2022/12/18 08:51:11;;;;;;;58.33;19.67;;;-5.20;99.90;;;;;;5019077;28;20189;-68
2022/12/18 08:53:37;;;;;;;54.60;21.50;;;-5.10;99.90;;;;;;5019552;28;20201;-69
2022/12/18 08:56:03;;;;;;;60.60;19.13;;;-5.00;99.90;;;;;;5020422;28;20296;-68
2022/12/18 08:58:29;;;;;;;53.87;19.90;;;-5.00;99.90;;;;;;5021593;28;20304;-68
2022/12/18 09:01:00;;;;;;;53.70;21.33;;;-4.90;99.90;;;;;;5017738;28;20302;-69
2022/12/18 09:03:26;;;;;;;50.37;20.70;;;-4.90;99.90;;;;;;5022798;28;20173;-69
2022/12/18 09:05:51;;;;;;;48.87;19.53;;;-5.00;99.90;;;;;;5019537;28;20220;-68
2022/12/18 09:08:17;;;;;;;46.30;19.40;;;-4.90;99.90;;;;;;5024258;28;20240;-69
2022/12/18 09:10:48;;;;;;;51.20;18.13;;;-4.80;99.90;;;;;;5024761;28;20296;-69
2022/12/18 09:13:15;;;;;;;56.00;20.33;;;-4.80;99.90;;;;;;5023429;28;20211;-68
2022/12/18 09:15:46;;;;;;;56.73;20.17;;;-4.90;99.90;;;;;;5025004;28;20425;-69
2022/12/18 09:18:13;;;;;;;52.27;20.53;;;-4.90;99.90;;;;;;5025805;28;20582;-68
2022/12/18 09:20:38;;;;;;;50.87;19.50;;;-4.80;99.90;;;;;;5026431;28;20623;-68
2022/12/18 09:23:05;;;;;;;52.37;20.93;;;-4.70;99.90;;;;;;5025873;28;20210;-68
2022/12/18 09:25:32;;;;;;;53.33;19.47;;;-5.00;99.90;;;;;;5028378;28;20202;-68
2022/12/18 09:27:59;;;;;;;49.53;18.17;;;-5.20;99.90;;;;;;5024839;28;20292;-69
2022/12/18 09:30:25;;;;;;;45.60;18.50;;;-5.30;99.90;;;;;;5026569;28;20188;-69
2022/12/18 09:32:54;;;;;;;47.17;18.00;;;-5.20;99.90;;;;;;5028908;28;20192;-68
2022/12/18 09:35:19;;;;;;;42.03;16.77;;;-5.20;99.90;;;;;;5025032;28;20204;-68
2022/12/18 09:37:45;;;;;;;46.20;17.97;;;-5.20;99.90;;;;;;5023564;28;20234;-67
2022/12/18 09:40:19;;;;;;;44.87;19.13;;;-5.10;99.90;;;;;;5020822;28;20221;-66
2022/12/18 09:43:06;;;;;;;45.43;19.33;;;-5.00;99.90;;;;;;5022203;28;20208;-68
2022/12/18 09:45:42;;;;;;;48.37;18.97;;;-5.00;99.90;;;;;;5029057;28;20219;-67
2022/12/18 09:48:35;;;;;;;44.47;16.27;;;-4.80;99.90;;;;;;5021759;28;20192;-68
2022/12/18 09:51:09;;;;;;;43.67;17.60;;;-4.80;99.90;;;;;;5021781;28;20241;-67
2022/12/18 09:53:38;;;;;;;53.20;19.43;;;-4.80;99.90;;;;;;5025279;28;20218;-66
2022/12/18 09:56:05;;;;;;;45.27;19.17;;;-4.60;99.90;;;;;;5021574;28;20211;-70
2022/12/18 09:58:33;;;;;;;43.93;18.53;;;-4.70;99.90;;;;;;5028400;28;20223;-66
2022/12/18 10:00:58;;;;;;;51.17;18.17;;;-4.70;99.90;;;;;;5019982;28;20266;-68
2022/12/18 10:03:26;;;;;;;45.67;19.10;;;-4.60;99.90;;;;;;5024525;28;20682;-68
2022/12/18 10:06:03;;;;;;;45.63;18.97;;;-4.70;99.90;;;;;;5026020;28;20213;-67
2022/12/18 10:08:54;;;;;;;53.00;18.60;;;-4.70;99.90;;;;;;5042688;28;20214;-67
2022/12/18 10:12:01;;;;;;;48.80;18.07;;;-4.60;99.90;;;;;;5044620;28;20210;-66
2022/12/18 10:14:30;;;;;;;42.20;17.27;;;-4.40;99.90;;;;;;5004952;28;20214;-69
2022/12/18 10:16:56;;;;;;;46.67;18.70;;;-4.50;99.90;;;;;;5041448;28;20224;-68
2022/12/18 10:19:48;;;;;;;47.90;19.90;;;-4.50;99.90;;;;;;5042775;28;20225;-68
2022/12/18 10:22:32;;;;;;;45.60;18.67;;;-4.40;99.90;;;;;;5043387;28;20583;-67
2022/12/18 10:25:23;;;;;;;44.93;16.43;;;-4.30;99.90;;;;;;5041710;28;20212;-68
2022/12/18 10:27:53;;;;;;;46.43;18.37;;;-4.30;99.90;;;;;;5043686;28;20206;-68
2022/12/18 10:30:21;;;;;;;39.87;17.13;;;-4.30;99.90;;;;;;5038447;28;20187;-67
2022/12/18 10:32:47;;;;;;;47.67;17.70;;;-4.30;99.90;;;;;;5045229;28;20183;-68
2022/12/18 10:35:20;;;;;;;36.10;16.30;;;-4.20;99.90;;;;;;5040464;28;20203;-66
2022/12/18 10:38:06;;;;;;;46.17;17.77;;;-4.10;99.90;;;;;;5041336;28;20267;-68
2022/12/18 10:40:32;;;;;;;41.63;17.70;;;-4.20;99.90;;;;;;5024328;28;20210;-68
2022/12/18 10:43:10;;;;;;;43.40;17.70;;;-4.20;99.90;;;;;;5043052;28;20212;-69
2022/12/18 10:45:36;;;;;;;45.07;18.80;;;-4.20;99.90;;;;;;5041934;28;20259;-68
2022/12/18 10:48:03;;;;;;;44.93;17.73;;;-4.30;99.90;;;;;;5041614;28;20568;-68
2022/12/18 10:50:31;;;;;;;46.83;18.50;;;-4.10;99.90;;;;;;5043406;28;20226;-69
2022/12/18 10:52:59;;;;;;;41.77;19.00;;;-4.10;99.90;;;;;;5040171;28;20774;-69
2022/12/18 10:55:31;;;;;;;43.30;18.07;;;-4.10;99.90;;;;;;5040598;28;20590;-68
2022/12/18 10:58:20;;;;;;;44.47;18.90;;;-4.10;99.90;;;;;;5041451;28;20267;-68
2022/12/18 11:01:05;;;;;;;50.60;19.67;;;-4.20;99.90;;;;;;5043224;28;20210;-68
2022/12/18 11:03:37;;;;;;;49.07;21.20;;;-4.10;99.90;;;;;;5043729;28;20220;-69
2022/12/18 11:06:09;;;;;;;54.57;19.33;;;-4.00;99.90;;;;;;5039916;28;20216;-67
2022/12/18 11:08:36;;;;;;;47.73;19.37;;;-3.90;99.90;;;;;;5021376;28;20234;-69
2022/12/18 11:11:02;;;;;;;49.63;19.23;;;-3.80;99.90;;;;;;5022403;28;20215;-65
2022/12/18 11:13:30;;;;;;;46.70;19.70;;;-3.80;99.90;;;;;;5022786;28;20595;-69
2022/12/18 11:15:56;;;;;;;51.67;20.17;;;-3.80;99.90;;;;;;5025518;28;20220;-68
2022/12/18 11:18:30;;;;;;;52.27;20.33;;;-3.70;99.90;;;;;;5022463;28;20557;-67
2022/12/18 11:21:07;;;;;;;47.03;20.47;;;-3.60;99.90;;;;;;5019438;28;20670;-68
2022/12/18 11:23:34;;;;;;;51.93;20.07;;;-3.70;99.90;;;;;;5018309;28;20257;-68
2022/12/18 11:26:03;;;;;;;47.20;18.53;;;-3.70;99.90;;;;;;5017002;28;20298;-67
2022/12/18 11:28:40;;;;;;;49.67;21.37;;;-3.80;99.90;;;;;;5023861;28;20239;-67
2022/12/18 11:31:27;;;;;;;51.80;20.90;;;-3.70;99.90;;;;;;5019171;28;20219;-68
2022/12/18 11:34:10;;;;;;;54.73;19.93;;;-3.60;99.90;;;;;;5019945;28;20219;-67
2022/12/18 11:36:41;;;;;;;51.90;20.00;;;-3.70;99.90;;;;;;5024411;28;20229;-69
2022/12/18 11:39:26;;;;;;;43.07;19.33;;;-3.70;99.90;;;;;;5020964;28;20207;-68
2022/12/18 11:42:09;;;;;;;53.10;19.50;;;-3.70;99.90;;;;;;5020156;28;20239;-67
2022/12/18 11:44:48;;;;;;;40.97;17.70;;;-3.80;99.90;;;;;;5021129;28;20202;-68
2022/12/18 11:47:40;;;;;;;42.13;17.87;;;-3.80;99.90;;;;;;5028073;28;20233;-68
2022/12/18 11:50:14;;;;;;;42.43;17.37;;;-3.90;99.90;;;;;;4994679;28;20216;-67
2022/12/18 11:52:40;;;;;;;47.13;18.57;;;-3.90;99.90;;;;;;5020912;28;20207;-69
2022/12/18 11:55:26;;;;;;;46.73;18.53;;;-4.00;99.90;;;;;;5025755;28;20212;-68
2022/12/18 11:58:00;;;;;;;41.60;17.63;;;-4.00;99.90;;;;;;5016840;28;20223;-69
2022/12/18 12:00:26;;;;;;;52.00;20.23;;;-3.90;99.90;;;;;;5021698;28;20175;-69
2022/12/18 12:03:06;;;;;;;45.10;19.90;;;-3.90;99.90;;;;;;5022127;28;20246;-68
2022/12/18 12:05:41;;;;;;;46.13;17.30;;;-3.80;99.90;;;;;;5022139;28;20225;-69
2022/12/18 12:08:26;;;;;;;50.90;18.00;;;-3.80;99.90;;;;;;5037470;22;20238;-69
2022/12/18 12:10:52;;;;;;;42.73;17.13;;;-3.80;99.90;;;;;;5040968;28;20283;-69
2022/12/18 12:13:37;;;;;;;44.03;18.73;;;-3.80;99.90;;;;;;5049111;28;20203;-70
2022/12/18 12:16:31;;;;;;;51.87;19.23;;;-3.80;99.90;;;;;;5043583;28;20225;-69
2022/12/18 12:19:21;;;;;;;45.30;19.10;;;-3.80;99.90;;;;;;5042243;28;20230;-67
2022/12/18 12:21:57;;;;;;;43.37;17.83;;;-3.90;99.90;;;;;;5048152;28;20281;-69
2022/12/18 12:24:44;;;;;;;45.07;17.40;;;-3.90;99.90;;;;;;5048979;28;20227;-71
2022/12/18 12:27:36;;;;;;;42.90;18.20;;;-3.80;99.90;;;;;;5045500;28;20564;-70
2022/12/18 12:30:16;;;;;;;46.67;18.10;;;-3.80;99.90;;;;;;5041320;28;20610;-71
2022/12/18 12:33:05;;;;;;;48.73;18.87;;;-3.70;99.90;;;;;;5045820;28;20226;-71
2022/12/18 12:35:55;;;;;;;43.53;18.70;;;-3.70;99.90;;;;;;5041359;28;20211;-70
2022/12/18 12:38:55;;;;;;;43.20;18.97;;;-3.70;99.90;;;;;;5041513;28;20298;-70
2022/12/18 12:44:30;;;;;;;45.73;19.33;;;-3.60;99.90;;;;;;4984683;28;20208;-70
2022/12/18 12:47:00;;;;;;;42.43;19.13;;;-3.70;99.90;;;;;;5050221;28;20210;-70
2022/12/18 12:49:31;;;;;;;42.53;18.73;;;-3.60;99.90;;;;;;5046624;28;20226;-71
2022/12/18 12:52:16;;;;;;;47.50;18.63;;;-3.60;99.90;;;;;;5048430;28;20301;-72
2022/12/18 12:54:43;;;;;;;47.00;19.83;;;-3.50;99.90;;;;;;5050108;28;20226;-71